sensor_id;sensor_type;location;lat;lon;timestamp;temperature;humidity
48206;DHT22;33995;48.202;16.260;2023-04-25T00:00:28;11.40;99.90
48206;DHT22;33995;48.202;16.260;2023-04-25T00:02:58;11.40;99.90
48206;DHT22;33995;48.202;16.260;2023-04-25T00:05:27;11.50;99.90
48206;DHT22;33995;48.202;16.260;2023-04-25T00:07:57;11.50;99.90
48206;DHT22;33995;48.202;16.260;2023-04-25T00:10:26;11.40;99.90
48206;DHT22;33995;48.202;16.260;2023-04-25T00:12:57;11.40;99.90
48206;DHT22;33995;48.202;16.260;2023-04-25T00:15:30;11.40;99.90
48206;DHT22;33995;48.202;16.260;2023-04-25T00:18:07;11.40;99.90
48206;DHT22;33995;48.202;16.260;2023-04-25T00:20:40;11.50;99.90
48206;DHT22;33995;48.202;16.260;2023-04-25T00:23:19;11.50;99.90
48206;DHT22;33995;48.202;16.260;2023-04-25T00:25:54;11.50;99.90
48206;DHT22;33995;48.202;16.260;2023-04-25T00:28:25;11.40;99.90
48206;DHT22;33995;48.202;16.260;2023-04-25T00:30:55;11.40;99.90
48206;DHT22;33995;48.202;16.260;2023-04-25T00:33:26;11.40;99.90
48206;DHT22;33995;48.202;16.260;2023-04-25T00:35:56;11.50;99.90
48206;DHT22;33995;48.202;16.260;2023-04-25T00:38:24;11.40;99.90
48206;DHT22;33995;48.202;16.260;2023-04-25T00:40:53;11.40;99.90
48206;DHT22;33995;48.202;16.260;2023-04-25T00:43:27;11.40;99.90
48206;DHT22;33995;48.202;16.260;2023-04-25T00:45:57;11.30;99.90
48206;DHT22;33995;48.202;16.260;2023-04-25T00:48:26;11.40;99.90
48206;DHT22;33995;48.202;16.260;2023-04-25T00:50:56;11.40;99.90
48206;DHT22;33995;48.202;16.260;2023-04-25T00:53:27;11.40;99.90
48206;DHT22;33995;48.202;16.260;2023-04-25T00:55:55;11.40;99.90
48206;DHT22;33995;48.202;16.260;2023-04-25T00:58:25;11.40;99.90
48206;DHT22;33995;48.202;16.260;2023-04-25T01:00:53;11.40;99.90
48206;DHT22;33995;48.202;16.260;2023-04-25T01:03:22;11.40;99.90
48206;DHT22;33995;48.202;16.260;2023-04-25T01:05:55;11.40;99.90
48206;DHT22;33995;48.202;16.260;2023-04-25T01:08:26;11.40;99.90
48206;DHT22;33995;48.202;16.260;2023-04-25T01:10:57;11.40;99.90
48206;DHT22;33995;48.202;16.260;2023-04-25T01:13:28;11.40;99.90
48206;DHT22;33995;48.202;16.260;2023-04-25T01:15:58;11.30;99.90
48206;DHT22;33995;48.202;16.260;2023-04-25T01:18:28;11.40;99.90
48206;DHT22;33995;48.202;16.260;2023-04-25T01:21:12;11.40;99.90
48206;DHT22;33995;48.202;16.260;2023-04-25T01:23:44;11.40;99.90
48206;DHT22;33995;48.202;16.260;2023-04-25T01:26:15;11.40;99.90
48206;DHT22;33995;48.202;16.260;2023-04-25T01:28:43;11.40;99.90
48206;DHT22;33995;48.202;16.260;2023-04-25T01:31:13;11.30;99.90
48206;DHT22;33995;48.202;16.260;2023-04-25T01:33:43;11.30;99.90
48206;DHT22;33995;48.202;16.260;2023-04-25T01:36:14;11.40;99.90
48206;DHT22;33995;48.202;16.260;2023-04-25T01:38:45;11.40;99.90
48206;DHT22;33995;48.202;16.260;2023-04-25T01:41:16;11.30;99.90
48206;DHT22;33995;48.202;16.260;2023-04-25T01:43:46;11.20;99.90
48206;DHT22;33995;48.202;16.260;2023-04-25T01:46:16;11.30;99.90
48206;DHT22;33995;48.202;16.260;2023-04-25T01:48:48;11.20;99.90
48206;DHT22;33995;48.202;16.260;2023-04-25T01:51:18;11.20;99.90
48206;DHT22;33995;48.202;16.260;2023-04-25T01:53:49;11.20;99.90
48206;DHT22;33995;48.202;16.260;2023-04-25T01:56:20;11.30;99.90
48206;DHT22;33995;48.202;16.260;2023-04-25T01:58:51;11.20;99.90
48206;DHT22;33995;48.202;16.260;2023-04-25T02:01:54;11.20;99.90
48206;DHT22;33995;48.202;16.260;2023-04-25T02:04:32;11.10;99.90
48206;DHT22;33995;48.202;16.260;2023-04-25T02:07:04;11.20;99.90
48206;DHT22;33995;48.202;16.260;2023-04-25T02:10:07;11.10;99.90
48206;DHT22;33995;48.202;16.260;2023-04-25T02:12:50;11.20;99.90
48206;DHT22;33995;48.202;16.260;2023-04-25T02:15:36;11.10;99.90
48206;DHT22;33995;48.202;16.260;2023-04-25T02:18:14;11.10;99.90
48206;DHT22;33995;48.202;16.260;2023-04-25T02:20:46;11.20;99.90
48206;DHT22;33995;48.202;16.260;2023-04-25T02:23:16;11.20;99.90
48206;DHT22;33995;48.202;16.260;2023-04-25T02:25:46;11.20;99.90
48206;DHT22;33995;48.202;16.260;2023-04-25T02:28:17;11.10;99.90
48206;DHT22;33995;48.202;16.260;2023-04-25T02:30:48;11.00;99.90
48206;DHT22;33995;48.202;16.260;2023-04-25T02:33:19;11.00;99.90
48206;DHT22;33995;48.202;16.260;2023-04-25T02:35:51;10.90;99.90
48206;DHT22;33995;48.202;16.260;2023-04-25T02:38:22;10.90;99.90
48206;DHT22;33995;48.202;16.260;2023-04-25T02:40:51;10.90;99.90
48206;DHT22;33995;48.202;16.260;2023-04-25T02:43:23;10.90;99.90
48206;DHT22;33995;48.202;16.260;2023-04-25T02:45:54;10.90;99.90
48206;DHT22;33995;48.202;16.260;2023-04-25T02:48:22;10.80;99.90
48206;DHT22;33995;48.202;16.260;2023-04-25T02:50:49;10.90;99.90
48206;DHT22;33995;48.202;16.260;2023-04-25T02:53:22;10.90;99.90
48206;DHT22;33995;48.202;16.260;2023-04-25T02:55:54;10.90;99.90
48206;DHT22;33995;48.202;16.260;2023-04-25T02:58:24;10.90;99.90
48206;DHT22;33995;48.202;16.260;2023-04-25T03:00:56;10.80;99.90
48206;DHT22;33995;48.202;16.260;2023-04-25T03:03:25;10.70;99.90
48206;DHT22;33995;48.202;16.260;2023-04-25T03:05:54;10.70;99.90
48206;DHT22;33995;48.202;16.260;2023-04-25T03:08:30;10.70;99.90
48206;DHT22;33995;48.202;16.260;2023-04-25T03:11:02;10.70;99.90
48206;DHT22;33995;48.202;16.260;2023-04-25T03:13:34;10.70;99.90
48206;DHT22;33995;48.202;16.260;2023-04-25T03:16:05;10.70;99.90
48206;DHT22;33995;48.202;16.260;2023-04-25T03:18:35;10.70;99.90
48206;DHT22;33995;48.202;16.260;2023-04-25T03:21:09;10.70;99.90
48206;DHT22;33995;48.202;16.260;2023-04-25T03:23:39;10.70;99.90
48206;DHT22;33995;48.202;16.260;2023-04-25T03:26:11;10.70;99.90
48206;DHT22;33995;48.202;16.260;2023-04-25T03:28:41;10.60;99.90
48206;DHT22;33995;48.202;16.260;2023-04-25T03:31:12;10.60;99.90
48206;DHT22;33995;48.202;16.260;2023-04-25T03:33:40;10.60;99.90
48206;DHT22;33995;48.202;16.260;2023-04-25T03:36:09;10.60;99.90
48206;DHT22;33995;48.202;16.260;2023-04-25T03:38:41;10.60;99.90
48206;DHT22;33995;48.202;16.260;2023-04-25T03:41:14;10.60;99.90
48206;DHT22;33995;48.202;16.260;2023-04-25T03:43:50;10.50;99.90
48206;DHT22;33995;48.202;16.260;2023-04-25T03:46:20;10.40;99.90
48206;DHT22;33995;48.202;16.260;2023-04-25T03:48:50;10.40;99.90
48206;DHT22;33995;48.202;16.260;2023-04-25T03:51:26;10.40;99.90
48206;DHT22;33995;48.202;16.260;2023-04-25T03:53:56;10.50;99.90
48206;DHT22;33995;48.202;16.260;2023-04-25T03:56:53;10.50;99.90
48206;DHT22;33995;48.202;16.260;2023-04-25T03:59:30;10.50;99.90
48206;DHT22;33995;48.202;16.260;2023-04-25T04:02:01;10.40;99.90
48206;DHT22;33995;48.202;16.260;2023-04-25T04:04:30;10.50;99.90
48206;DHT22;33995;48.202;16.260;2023-04-25T04:07:01;10.40;99.90
48206;DHT22;33995;48.202;16.260;2023-04-25T04:09:37;10.40;99.90
48206;DHT22;33995;48.202;16.260;2023-04-25T04:12:12;10.30;99.90
48206;DHT22;33995;48.202;16.260;2023-04-25T04:14:42;10.40;99.90
48206;DHT22;33995;48.202;16.260;2023-04-25T04:17:10;10.40;99.90
48206;DHT22;33995;48.202;16.260;2023-04-25T04:19:39;10.30;99.90
48206;DHT22;33995;48.202;16.260;2023-04-25T04:22:16;10.40;99.90
48206;DHT22;33995;48.202;16.260;2023-04-25T04:24:48;10.30;99.90
48206;DHT22;33995;48.202;16.260;2023-04-25T04:27:45;10.30;99.90
48206;DHT22;33995;48.202;16.260;2023-04-25T04:30:39;10.20;99.90
48206;DHT22;33995;48.202;16.260;2023-04-25T04:33:11;10.20;99.90
48206;DHT22;33995;48.202;16.260;2023-04-25T04:35:43;10.20;99.90
48206;DHT22;33995;48.202;16.260;2023-04-25T04:38:11;10.20;99.90
48206;DHT22;33995;48.202;16.260;2023-04-25T04:40:40;10.20;99.90
48206;DHT22;33995;48.202;16.260;2023-04-25T04:43:19;10.20;99.90
48206;DHT22;33995;48.202;16.260;2023-04-25T04:46:05;10.10;99.90
48206;DHT22;33995;48.202;16.260;2023-04-25T04:48:42;10.00;99.90
48206;DHT22;33995;48.202;16.260;2023-04-25T04:51:36;9.90;99.90
48206;DHT22;33995;48.202;16.260;2023-04-25T04:54:27;10.10;99.90
48206;DHT22;33995;48.202;16.260;2023-04-25T04:57:25;10.00;99.90
48206;DHT22;33995;48.202;16.260;2023-04-25T05:00:18;10.00;99.90
48206;DHT22;33995;48.202;16.260;2023-04-25T05:03:11;10.10;99.90
48206;DHT22;33995;48.202;16.260;2023-04-25T05:05:49;10.10;99.90
48206;DHT22;33995;48.202;16.260;2023-04-25T05:08:42;9.90;99.90
48206;DHT22;33995;48.202;16.260;2023-04-25T05:11:39;10.00;99.90
48206;DHT22;33995;48.202;16.260;2023-04-25T05:14:22;10.00;99.90
48206;DHT22;33995;48.202;16.260;2023-04-25T05:17:11;10.10;99.90
48206;DHT22;33995;48.202;16.260;2023-04-25T05:20:12;9.80;99.90
48206;DHT22;33995;48.202;16.260;2023-04-25T05:23:02;9.80;99.90
48206;DHT22;33995;48.202;16.260;2023-04-25T05:25:48;9.90;99.90
48206;DHT22;33995;48.202;16.260;2023-04-25T05:28:22;9.90;99.90
48206;DHT22;33995;48.202;16.260;2023-04-25T05:31:16;9.90;99.90
48206;DHT22;33995;48.202;16.260;2023-04-25T05:34:15;10.10;99.90
48206;DHT22;33995;48.202;16.260;2023-04-25T05:37:02;10.10;99.90
48206;DHT22;33995;48.202;16.260;2023-04-25T05:39:35;10.20;99.90
48206;DHT22;33995;48.202;16.260;2023-04-25T05:42:30;10.20;99.90
48206;DHT22;33995;48.202;16.260;2023-04-25T05:45:11;10.40;99.90
48206;DHT22;33995;48.202;16.260;2023-04-25T05:48:10;10.60;99.90
48206;DHT22;33995;48.202;16.260;2023-04-25T05:51:08;10.80;99.90
48206;DHT22;33995;48.202;16.260;2023-04-25T05:53:59;10.90;99.90
48206;DHT22;33995;48.202;16.260;2023-04-25T05:56:33;10.90;99.90
48206;DHT22;33995;48.202;16.260;2023-04-25T05:59:07;11.00;99.90
48206;DHT22;33995;48.202;16.260;2023-04-25T06:01:39;11.10;99.90
48206;DHT22;33995;48.202;16.260;2023-04-25T06:04:12;11.30;99.90
48206;DHT22;33995;48.202;16.260;2023-04-25T06:06:44;11.40;99.90
48206;DHT22;33995;48.202;16.260;2023-04-25T06:09:16;11.50;99.90
48206;DHT22;33995;48.202;16.260;2023-04-25T06:11:46;11.60;99.90
48206;DHT22;33995;48.202;16.260;2023-04-25T06:14:20;11.60;99.90
48206;DHT22;33995;48.202;16.260;2023-04-25T06:16:50;11.80;99.90
48206;DHT22;33995;48.202;16.260;2023-04-25T06:19:20;11.80;99.90
48206;DHT22;33995;48.202;16.260;2023-04-25T06:21:52;12.00;99.90
48206;DHT22;33995;48.202;16.260;2023-04-25T06:24:21;12.10;99.90
48206;DHT22;33995;48.202;16.260;2023-04-25T06:26:49;12.10;99.90
48206;DHT22;33995;48.202;16.260;2023-04-25T06:29:16;12.20;99.90
48206;DHT22;33995;48.202;16.260;2023-04-25T06:31:45;12.30;99.90
48206;DHT22;33995;48.202;16.260;2023-04-25T06:34:17;12.30;99.90
48206;DHT22;33995;48.202;16.260;2023-04-25T06:36:45;12.50;99.90
48206;DHT22;33995;48.202;16.260;2023-04-25T06:39:17;12.50;99.90
48206;DHT22;33995;48.202;16.260;2023-04-25T06:41:52;12.70;99.90
48206;DHT22;33995;48.202;16.260;2023-04-25T06:44:40;12.60;99.90
48206;DHT22;33995;48.202;16.260;2023-04-25T06:47:29;12.80;99.90
48206;DHT22;33995;48.202;16.260;2023-04-25T06:49:58;12.80;99.90
48206;DHT22;33995;48.202;16.260;2023-04-25T06:52:26;13.00;99.90
48206;DHT22;33995;48.202;16.260;2023-04-25T06:54:56;13.00;99.90
48206;DHT22;33995;48.202;16.260;2023-04-25T06:57:56;13.10;99.90
48206;DHT22;33995;48.202;16.260;2023-04-25T07:00:48;13.20;99.90
48206;DHT22;33995;48.202;16.260;2023-04-25T07:03:31;13.20;99.90
48206;DHT22;33995;48.202;16.260;2023-04-25T07:06:07;13.40;99.90
48206;DHT22;33995;48.202;16.260;2023-04-25T07:08:35;13.70;99.90
48206;DHT22;33995;48.202;16.260;2023-04-25T07:11:07;13.80;99.90
48206;DHT22;33995;48.202;16.260;2023-04-25T07:13:36;14.00;99.90
48206;DHT22;33995;48.202;16.260;2023-04-25T07:16:06;14.10;99.90
48206;DHT22;33995;48.202;16.260;2023-04-25T07:18:38;14.30;99.90
48206;DHT22;33995;48.202;16.260;2023-04-25T07:21:10;14.30;99.90
48206;DHT22;33995;48.202;16.260;2023-04-25T07:23:49;14.40;99.90
48206;DHT22;33995;48.202;16.260;2023-04-25T07:26:24;14.60;99.90
48206;DHT22;33995;48.202;16.260;2023-04-25T07:29:16;14.70;99.90
48206;DHT22;33995;48.202;16.260;2023-04-25T07:31:43;14.70;99.90
48206;DHT22;33995;48.202;16.260;2023-04-25T07:34:14;14.80;99.90
48206;DHT22;33995;48.202;16.260;2023-04-25T07:36:47;15.00;99.90
48206;DHT22;33995;48.202;16.260;2023-04-25T07:39:16;15.10;99.90
48206;DHT22;33995;48.202;16.260;2023-04-25T07:41:46;15.20;99.90
48206;DHT22;33995;48.202;16.260;2023-04-25T07:44:29;15.30;99.90
48206;DHT22;33995;48.202;16.260;2023-04-25T07:47:00;15.40;99.90
48206;DHT22;33995;48.202;16.260;2023-04-25T07:49:43;15.30;99.90
48206;DHT22;33995;48.202;16.260;2023-04-25T07:52:10;15.00;99.90
48206;DHT22;33995;48.202;16.260;2023-04-25T07:54:49;14.90;99.90
48206;DHT22;33995;48.202;16.260;2023-04-25T07:57:27;15.10;99.90
48206;DHT22;33995;48.202;16.260;2023-04-25T07:59:59;15.20;99.90
48206;DHT22;33995;48.202;16.260;2023-04-25T08:02:50;15.20;99.90
48206;DHT22;33995;48.202;16.260;2023-04-25T08:05:22;15.60;99.90
48206;DHT22;33995;48.202;16.260;2023-04-25T08:08:06;15.60;99.90
48206;DHT22;33995;48.202;16.260;2023-04-25T08:10:42;15.70;99.90
48206;DHT22;33995;48.202;16.260;2023-04-25T08:13:12;15.70;99.90
48206;DHT22;33995;48.202;16.260;2023-04-25T08:15:46;15.60;99.90
48206;DHT22;33995;48.202;16.260;2023-04-25T08:18:18;15.50;99.90
48206;DHT22;33995;48.202;16.260;2023-04-25T08:20:50;15.50;99.90
48206;DHT22;33995;48.202;16.260;2023-04-25T08:23:25;15.60;99.90
48206;DHT22;33995;48.202;16.260;2023-04-25T08:26:16;15.70;99.90
48206;DHT22;33995;48.202;16.260;2023-04-25T08:28:47;15.70;99.90
48206;DHT22;33995;48.202;16.260;2023-04-25T08:31:15;15.80;99.90
48206;DHT22;33995;48.202;16.260;2023-04-25T08:33:58;16.00;99.90
48206;DHT22;33995;48.202;16.260;2023-04-25T08:36:49;15.90;99.90
48206;DHT22;33995;48.202;16.260;2023-04-25T08:39:45;16.00;99.90
48206;DHT22;33995;48.202;16.260;2023-04-25T08:42:34;16.20;99.90
48206;DHT22;33995;48.202;16.260;2023-04-25T08:45:05;16.30;99.90
48206;DHT22;33995;48.202;16.260;2023-04-25T08:47:38;16.30;99.90
48206;DHT22;33995;48.202;16.260;2023-04-25T08:50:09;16.20;99.90
48206;DHT22;33995;48.202;16.260;2023-04-25T08:52:50;16.20;99.90
48206;DHT22;33995;48.202;16.260;2023-04-25T08:55:30;16.00;99.90
48206;DHT22;33995;48.202;16.260;2023-04-25T08:57:59;15.90;99.90
48206;DHT22;33995;48.202;16.260;2023-04-25T09:00:29;16.10;99.90
48206;DHT22;33995;48.202;16.260;2023-04-25T09:03:03;16.40;99.90
48206;DHT22;33995;48.202;16.260;2023-04-25T09:05:34;16.40;99.90
48206;DHT22;33995;48.202;16.260;2023-04-25T09:08:16;16.50;99.90
48206;DHT22;33995;48.202;16.260;2023-04-25T09:10:48;16.30;99.90
48206;DHT22;33995;48.202;16.260;2023-04-25T09:13:28;16.20;99.90
48206;DHT22;33995;48.202;16.260;2023-04-25T09:16:19;15.80;99.90
48206;DHT22;33995;48.202;16.260;2023-04-25T09:22:32;15.30;99.90
48206;DHT22;33995;48.202;16.260;2023-04-25T09:25:13;14.90;99.90
48206;DHT22;33995;48.202;16.260;2023-04-25T09:27:54;14.70;99.90
48206;DHT22;33995;48.202;16.260;2023-04-25T09:30:33;14.60;99.90
48206;DHT22;33995;48.202;16.260;2023-04-25T09:33:13;14.50;99.90
48206;DHT22;33995;48.202;16.260;2023-04-25T09:36:03;14.40;99.90
48206;DHT22;33995;48.202;16.260;2023-04-25T09:38:53;14.50;99.90
48206;DHT22;33995;48.202;16.260;2023-04-25T09:41:27;14.40;99.90
48206;DHT22;33995;48.202;16.260;2023-04-25T09:44:04;14.40;99.90
48206;DHT22;33995;48.202;16.260;2023-04-25T09:46:36;14.30;99.90
48206;DHT22;33995;48.202;16.260;2023-04-25T09:49:15;14.00;99.90
48206;DHT22;33995;48.202;16.260;2023-04-25T09:52:04;13.90;99.90
48206;DHT22;33995;48.202;16.260;2023-04-25T09:54:40;13.90;99.90
48206;DHT22;33995;48.202;16.260;2023-04-25T09:57:22;14.10;99.90
48206;DHT22;33995;48.202;16.260;2023-04-25T10:00:00;14.10;99.90
48206;DHT22;33995;48.202;16.260;2023-04-25T10:02:51;14.20;99.90
48206;DHT22;33995;48.202;16.260;2023-04-25T10:06:03;14.20;99.90
48206;DHT22;33995;48.202;16.260;2023-04-25T10:08:35;14.10;99.90
48206;DHT22;33995;48.202;16.260;2023-04-25T10:11:07;14.20;99.90
48206;DHT22;33995;48.202;16.260;2023-04-25T10:13:38;14.00;99.90
48206;DHT22;33995;48.202;16.260;2023-04-25T10:16:22;14.00;99.90
48206;DHT22;33995;48.202;16.260;2023-04-25T10:18:59;14.00;99.90
48206;DHT22;33995;48.202;16.260;2023-04-25T10:21:32;13.70;99.90
48206;DHT22;33995;48.202;16.260;2023-04-25T10:24:21;13.50;99.90
48206;DHT22;33995;48.202;16.260;2023-04-25T11:09:53;17.40;99.90
48206;DHT22;33995;48.202;16.260;2023-04-25T11:12:26;17.30;99.90
48206;DHT22;33995;48.202;16.260;2023-04-25T11:15:15;17.30;99.90
48206;DHT22;33995;48.202;16.260;2023-04-25T11:17:50;17.30;99.90
48206;DHT22;33995;48.202;16.260;2023-04-25T11:20:19;17.20;99.90
48206;DHT22;33995;48.202;16.260;2023-04-25T11:22:47;16.90;99.90
48206;DHT22;33995;48.202;16.260;2023-04-25T11:25:20;16.50;99.90
48206;DHT22;33995;48.202;16.260;2023-04-25T11:28:11;15.20;99.90
48206;DHT22;33995;48.202;16.260;2023-04-25T11:30:52;14.10;99.90
48206;DHT22;33995;48.202;16.260;2023-04-25T11:33:25;13.50;99.90
48206;DHT22;33995;48.202;16.260;2023-04-25T11:35:59;13.00;99.90
48206;DHT22;33995;48.202;16.260;2023-04-25T11:38:29;13.00;99.90
48206;DHT22;33995;48.202;16.260;2023-04-25T11:40:59;13.00;99.90
48206;DHT22;33995;48.202;16.260;2023-04-25T11:43:30;12.80;99.90
48206;DHT22;33995;48.202;16.260;2023-04-25T11:46:05;12.90;99.90
48206;DHT22;33995;48.202;16.260;2023-04-25T11:48:40;12.90;99.90
48206;DHT22;33995;48.202;16.260;2023-04-25T11:51:12;12.90;99.90
48206;DHT22;33995;48.202;16.260;2023-04-25T11:53:44;13.10;99.90
48206;DHT22;33995;48.202;16.260;2023-04-25T11:56:13;13.30;99.90
48206;DHT22;33995;48.202;16.260;2023-04-25T11:59:05;13.70;99.90
48206;DHT22;33995;48.202;16.260;2023-04-25T12:01:36;14.20;99.90
48206;DHT22;33995;48.202;16.260;2023-04-25T12:07:04;14.80;99.90
48206;DHT22;33995;48.202;16.260;2023-04-25T12:09:43;15.10;99.90
48206;DHT22;33995;48.202;16.260;2023-04-25T12:12:14;15.40;99.90
48206;DHT22;33995;48.202;16.260;2023-04-25T12:14:48;15.40;99.90
48206;DHT22;33995;48.202;16.260;2023-04-25T12:17:17;15.30;99.90
48206;DHT22;33995;48.202;16.260;2023-04-25T12:19:47;15.20;99.90
48206;DHT22;33995;48.202;16.260;2023-04-25T12:22:23;15.20;99.90
48206;DHT22;33995;48.202;16.260;2023-04-25T12:24:55;15.30;99.90
48206;DHT22;33995;48.202;16.260;2023-04-25T12:27:32;15.20;99.90
48206;DHT22;33995;48.202;16.260;2023-04-25T12:29:59;15.50;99.90
48206;DHT22;33995;48.202;16.260;2023-04-25T12:32:28;15.60;99.90
48206;DHT22;33995;48.202;16.260;2023-04-25T12:34:56;15.50;99.90
48206;DHT22;33995;48.202;16.260;2023-04-25T12:37:26;15.50;99.90
48206;DHT22;33995;48.202;16.260;2023-04-25T12:39:55;15.20;99.90
48206;DHT22;33995;48.202;16.260;2023-04-25T12:42:26;15.30;99.90
48206;DHT22;33995;48.202;16.260;2023-04-25T12:44:55;15.60;99.90
48206;DHT22;33995;48.202;16.260;2023-04-25T12:47:26;15.90;99.90
48206;DHT22;33995;48.202;16.260;2023-04-25T12:49:55;15.90;99.90
48206;DHT22;33995;48.202;16.260;2023-04-25T12:52:25;15.80;99.90
48206;DHT22;33995;48.202;16.260;2023-04-25T12:54:57;16.00;99.90
48206;DHT22;33995;48.202;16.260;2023-04-25T12:57:28;16.30;99.90
48206;DHT22;33995;48.202;16.260;2023-04-25T12:59:58;16.50;99.90
48206;DHT22;33995;48.202;16.260;2023-04-25T13:02:29;16.40;99.90
48206;DHT22;33995;48.202;16.260;2023-04-25T13:04:56;16.50;99.90
48206;DHT22;33995;48.202;16.260;2023-04-25T13:07:32;16.70;99.90
48206;DHT22;33995;48.202;16.260;2023-04-25T13:10:03;16.60;99.90
48206;DHT22;33995;48.202;16.260;2023-04-25T13:12:31;16.50;99.90
48206;DHT22;33995;48.202;16.260;2023-04-25T13:14:59;16.50;99.90
48206;DHT22;33995;48.202;16.260;2023-04-25T13:17:27;16.60;99.90
48206;DHT22;33995;48.202;16.260;2023-04-25T13:19:59;16.50;99.90
48206;DHT22;33995;48.202;16.260;2023-04-25T13:22:27;16.60;99.90
48206;DHT22;33995;48.202;16.260;2023-04-25T13:24:57;16.60;99.90
48206;DHT22;33995;48.202;16.260;2023-04-25T13:27:28;16.60;99.90
48206;DHT22;33995;48.202;16.260;2023-04-25T13:29:58;16.70;99.90
48206;DHT22;33995;48.202;16.260;2023-04-25T13:32:26;16.70;99.90
48206;DHT22;33995;48.202;16.260;2023-04-25T13:34:55;16.80;99.90
48206;DHT22;33995;48.202;16.260;2023-04-25T13:37:25;16.90;99.90
48206;DHT22;33995;48.202;16.260;2023-04-25T13:39:55;16.90;99.90
48206;DHT22;33995;48.202;16.260;2023-04-25T13:42:27;16.90;99.90
48206;DHT22;33995;48.202;16.260;2023-04-25T13:44:55;16.90;99.90
48206;DHT22;33995;48.202;16.260;2023-04-25T13:47:26;16.40;99.90
48206;DHT22;33995;48.202;16.260;2023-04-25T13:49:57;16.20;99.90
48206;DHT22;33995;48.202;16.260;2023-04-25T13:52:28;16.30;99.90
48206;DHT22;33995;48.202;16.260;2023-04-25T13:54:59;16.10;99.90
48206;DHT22;33995;48.202;16.260;2023-04-25T13:57:26;15.80;99.90
48206;DHT22;33995;48.202;16.260;2023-04-25T13:59:54;15.80;99.90
48206;DHT22;33995;48.202;16.260;2023-04-25T14:02:27;15.80;99.90
48206;DHT22;33995;48.202;16.260;2023-04-25T14:04:58;15.80;99.90
48206;DHT22;33995;48.202;16.260;2023-04-25T14:07:27;16.00;99.90
48206;DHT22;33995;48.202;16.260;2023-04-25T14:09:57;15.90;99.90
48206;DHT22;33995;48.202;16.260;2023-04-25T14:12:29;16.10;99.90
48206;DHT22;33995;48.202;16.260;2023-04-25T14:14:57;15.90;99.90
48206;DHT22;33995;48.202;16.260;2023-04-25T14:17:25;16.30;99.90
48206;DHT22;33995;48.202;16.260;2023-04-25T14:19:57;16.40;99.90
48206;DHT22;33995;48.202;16.260;2023-04-25T14:22:29;16.70;99.90
48206;DHT22;33995;48.202;16.260;2023-04-25T14:25:08;16.40;99.90
48206;DHT22;33995;48.202;16.260;2023-04-25T14:27:39;16.40;99.90
48206;DHT22;33995;48.202;16.260;2023-04-25T14:30:09;16.30;99.90
48206;DHT22;33995;48.202;16.260;2023-04-25T14:32:40;16.30;99.90
48206;DHT22;33995;48.202;16.260;2023-04-25T14:35:14;16.30;99.90
48206;DHT22;33995;48.202;16.260;2023-04-25T14:37:58;16.00;99.90
48206;DHT22;33995;48.202;16.260;2023-04-25T14:40:30;15.80;99.90
48206;DHT22;33995;48.202;16.260;2023-04-25T14:43:02;15.90;99.90
48206;DHT22;33995;48.202;16.260;2023-04-25T14:45:38;16.10;99.90
48206;DHT22;33995;48.202;16.260;2023-04-25T14:48:06;16.00;99.90
48206;DHT22;33995;48.202;16.260;2023-04-25T14:50:35;16.10;99.90
48206;DHT22;33995;48.202;16.260;2023-04-25T14:53:04;16.20;99.90
48206;DHT22;33995;48.202;16.260;2023-04-25T14:55:35;16.10;99.90
48206;DHT22;33995;48.202;16.260;2023-04-25T14:58:06;16.00;99.90
48206;DHT22;33995;48.202;16.260;2023-04-25T15:00:37;16.00;99.90
48206;DHT22;33995;48.202;16.260;2023-04-25T15:03:08;15.40;99.90
48206;DHT22;33995;48.202;16.260;2023-04-25T15:05:44;15.40;99.90
48206;DHT22;33995;48.202;16.260;2023-04-25T15:08:14;15.30;99.90
48206;DHT22;33995;48.202;16.260;2023-04-25T15:10:46;15.40;99.90
48206;DHT22;33995;48.202;16.260;2023-04-25T15:13:14;15.40;99.90
48206;DHT22;33995;48.202;16.260;2023-04-25T15:15:44;15.30;99.90
48206;DHT22;33995;48.202;16.260;2023-04-25T15:18:11;15.20;99.90
48206;DHT22;33995;48.202;16.260;2023-04-25T15:20:43;15.30;99.90
48206;DHT22;33995;48.202;16.260;2023-04-25T15:23:10;15.30;99.90
48206;DHT22;33995;48.202;16.260;2023-04-25T15:25:46;15.20;99.90
48206;DHT22;33995;48.202;16.260;2023-04-25T15:28:17;15.20;99.90
48206;DHT22;33995;48.202;16.260;2023-04-25T15:30:51;15.10;99.90
48206;DHT22;33995;48.202;16.260;2023-04-25T15:33:25;15.20;99.90
48206;DHT22;33995;48.202;16.260;2023-04-25T15:36:01;15.10;99.90
48206;DHT22;33995;48.202;16.260;2023-04-25T15:38:30;14.90;99.90
48206;DHT22;33995;48.202;16.260;2023-04-25T15:41:01;14.80;99.90
48206;DHT22;33995;48.202;16.260;2023-04-25T15:43:34;14.70;99.90
48206;DHT22;33995;48.202;16.260;2023-04-25T15:46:12;14.60;99.90
48206;DHT22;33995;48.202;16.260;2023-04-25T15:48:45;14.40;99.90
48206;DHT22;33995;48.202;16.260;2023-04-25T15:51:14;14.40;99.90
48206;DHT22;33995;48.202;16.260;2023-04-25T15:53:46;14.10;99.90
48206;DHT22;33995;48.202;16.260;2023-04-25T15:56:14;14.40;99.90
48206;DHT22;33995;48.202;16.260;2023-04-25T15:58:47;14.30;99.90
48206;DHT22;33995;48.202;16.260;2023-04-25T16:01:15;14.10;99.90
48206;DHT22;33995;48.202;16.260;2023-04-25T16:03:49;14.10;99.90
48206;DHT22;33995;48.202;16.260;2023-04-25T16:06:19;14.00;99.90
48206;DHT22;33995;48.202;16.260;2023-04-25T16:08:50;13.90;99.90
48206;DHT22;33995;48.202;16.260;2023-04-25T16:11:27;14.10;99.90
48206;DHT22;33995;48.202;16.260;2023-04-25T16:13:59;14.10;99.90
48206;DHT22;33995;48.202;16.260;2023-04-25T16:16:26;14.20;99.90
48206;DHT22;33995;48.202;16.260;2023-04-25T16:18:56;13.90;99.90
48206;DHT22;33995;48.202;16.260;2023-04-25T16:21:24;13.90;99.90
48206;DHT22;33995;48.202;16.260;2023-04-25T16:23:55;14.00;99.90
48206;DHT22;33995;48.202;16.260;2023-04-25T16:26:26;13.70;99.90
48206;DHT22;33995;48.202;16.260;2023-04-25T16:28:57;13.70;99.90
48206;DHT22;33995;48.202;16.260;2023-04-25T16:31:27;13.70;99.90
48206;DHT22;33995;48.202;16.260;2023-04-25T16:33:56;13.90;99.90
48206;DHT22;33995;48.202;16.260;2023-04-25T16:36:31;14.00;99.90
48206;DHT22;33995;48.202;16.260;2023-04-25T16:39:01;13.90;99.90
48206;DHT22;33995;48.202;16.260;2023-04-25T16:41:37;13.80;99.90
48206;DHT22;33995;48.202;16.260;2023-04-25T16:44:11;13.70;99.90
48206;DHT22;33995;48.202;16.260;2023-04-25T16:46:39;13.80;99.90
48206;DHT22;33995;48.202;16.260;2023-04-25T16:49:10;13.80;99.90
48206;DHT22;33995;48.202;16.260;2023-04-25T16:51:41;13.70;99.90